Terminal Aerodrome Forecast
Issued by NWS Buffalo, NY

Home | Current Version | Previous Version | Text Only | Print | Product List | Glossary On
Versions: 1 2 3 4 5 6 7 8 9 10 11 12 13 14 15 16 17 18 19 20 21 22 23 24 25
000
FTUS41 KBUF 170903 AAA
TAFART
TAF AMD
KART 170903Z 1709/1806 VRB03KT P6SM SCT250
     FM171100 11004KT P6SM SCT250
     FM171600 10005KT P6SM VCSH OVC110
     FM171800 10007KT 6SM -RA OVC070
     FM172100 10009KT 3SM -RA OVC012
     FM180500 16007KT 5SM -RA OVC015=

USA.gov is the U.S. government's official web portal to all federal, state and local government web resources and services.